createdAt,value
2022-12-14T00:05:40.773Z,21.20
2022-12-14T00:15:42.274Z,25.55
2022-12-14T00:25:43.687Z,23.40
2022-12-14T00:35:50.341Z,22.17
2022-12-14T00:45:51.624Z,24.90
2022-12-14T00:55:52.901Z,22.25
2022-12-14T01:05:54.189Z,25.77
2022-12-14T01:15:55.534Z,21.20
2022-12-14T01:25:57.171Z,21.35
2022-12-14T01:36:01.496Z,20.25
2022-12-14T01:46:02.785Z,21.75
2022-12-14T01:56:04.049Z,21.30
2022-12-14T02:06:05.336Z,22.05
2022-12-14T02:16:06.683Z,25.10
2022-12-14T02:26:07.990Z,24.10
2022-12-14T02:36:09.302Z,23.40
2022-12-14T02:46:10.920Z,23.60
2022-12-14T02:56:12.248Z,24.08
2022-12-14T03:06:16.260Z,26.80
2022-12-14T03:26:18.913Z,25.83
2022-12-14T03:36:20.248Z,24.67
2022-12-14T03:46:21.529Z,26.70
2022-12-14T03:56:22.826Z,22.83
2022-12-14T04:06:24.053Z,26.13
2022-12-14T04:16:44.033Z,23.65
2022-12-14T04:26:45.342Z,19.17
2022-12-14T04:36:46.613Z,23.10
2022-12-14T04:46:47.918Z,23.15
2022-12-14T04:56:49.220Z,25.77
2022-12-14T05:06:50.471Z,24.95
2022-12-14T05:16:51.813Z,19.65
2022-12-14T05:26:54.815Z,23.90
2022-12-14T05:36:56.061Z,23.08
2022-12-14T05:46:57.376Z,26.02
2022-12-14T05:56:58.648Z,29.20
2022-12-14T06:06:59.956Z,31.77
2022-12-14T06:17:01.325Z,34.53
2022-12-14T06:27:02.574Z,29.70
2022-12-14T06:37:03.869Z,32.90
2022-12-14T06:47:05.241Z,33.42
2022-12-14T06:57:06.494Z,30.75
2022-12-14T07:07:07.784Z,29.08
2022-12-14T07:17:09.068Z,29.27
2022-12-14T07:27:10.318Z,34.50
2022-12-14T07:37:11.549Z,40.90
2022-12-14T07:47:16.584Z,38.13
2022-12-14T07:57:18.140Z,37.85
2022-12-14T08:07:19.481Z,40.00
2022-12-14T08:17:20.751Z,40.45
2022-12-14T08:27:21.992Z,41.03
2022-12-14T08:37:23.222Z,52.83
2022-12-14T08:47:24.482Z,51.47
2022-12-14T08:57:25.745Z,53.92
2022-12-14T09:07:27.067Z,49.40
2022-12-14T09:17:28.408Z,54.67
2022-12-14T09:27:29.682Z,55.70
2022-12-14T09:37:31.065Z,66.32
2022-12-14T09:47:32.447Z,61.35
2022-12-14T09:57:33.726Z,62.20
2022-12-14T10:07:35.023Z,60.97
2022-12-14T10:17:36.291Z,63.42
2022-12-14T10:28:01.124Z,57.28
2022-12-14T10:37:59.048Z,59.85
2022-12-14T10:48:12.198Z,61.85
2022-12-14T10:58:13.450Z,61.40
2022-12-14T11:08:15.745Z,65.25
2022-12-14T11:18:17.224Z,64.45
2022-12-14T11:28:18.670Z,56.20
2022-12-14T11:38:21.047Z,53.15
2022-12-14T11:48:22.342Z,64.80
2022-12-14T11:58:23.622Z,60.65
2022-12-14T12:08:25.007Z,58.50
2022-12-14T12:18:26.784Z,52.88
2022-12-14T12:28:28.732Z,56.15
2022-12-14T12:38:30.722Z,56.17
2022-12-14T12:48:32.748Z,56.80
2022-12-14T12:58:34.880Z,55.85
2022-12-14T13:08:36.194Z,55.42
2022-12-14T13:28:58.728Z,58.55
2022-12-14T13:38:59.960Z,57.00
2022-12-14T13:49:01.263Z,60.78
2022-12-14T13:59:02.777Z,60.83
2022-12-14T14:09:04.102Z,53.80
2022-12-14T14:19:05.662Z,60.75
2022-12-14T14:29:07.262Z,55.22
2022-12-14T14:39:31.419Z,68.50
2022-12-14T14:49:30.462Z,65.50
2022-12-14T14:59:31.968Z,59.28
2022-12-14T15:09:33.716Z,66.30
2022-12-14T15:19:36.721Z,62.80
2022-12-14T15:29:37.948Z,64.47
2022-12-14T15:39:40.601Z,64.25
2022-12-14T15:49:41.852Z,58.88
2022-12-14T15:59:43.287Z,60.33
2022-12-14T16:09:44.561Z,59.40
2022-12-14T16:19:59.569Z,68.53
2022-12-14T16:30:01.399Z,60.78
2022-12-14T16:40:02.733Z,56.03
2022-12-14T16:50:04.126Z,58.40
2022-12-14T17:00:05.690Z,63.20
2022-12-14T17:10:06.952Z,81.80
2022-12-14T17:20:13.616Z,64.30
2022-12-14T17:30:15.753Z,56.65
2022-12-14T17:40:17.005Z,59.25
2022-12-14T17:50:18.259Z,61.15
2022-12-14T18:00:38.149Z,65.38
2022-12-14T18:10:39.481Z,47.13
2022-12-14T18:20:40.715Z,50.25
2022-12-14T18:30:47.688Z,63.83
2022-12-14T18:40:50.826Z,57.72
2022-12-14T18:50:52.112Z,46.30
2022-12-14T19:00:53.472Z,56.13
2022-12-14T19:10:54.791Z,51.88
2022-12-14T19:20:56.164Z,53.55
2022-12-14T19:30:57.467Z,53.83
2022-12-14T19:40:58.729Z,55.60
2022-12-14T19:50:59.972Z,52.42
2022-12-14T20:01:01.231Z,63.80
2022-12-14T20:11:02.754Z,50.78
2022-12-14T20:21:03.973Z,47.47
2022-12-14T20:31:05.241Z,47.40
2022-12-14T20:41:06.548Z,46.05
2022-12-14T20:51:07.779Z,49.75
2022-12-14T21:01:09.090Z,58.10
2022-12-14T21:11:29.023Z,49.53
2022-12-14T21:21:30.264Z,46.63
2022-12-14T21:31:31.593Z,45.15
2022-12-14T21:41:51.449Z,44.35
2022-12-14T21:51:52.683Z,48.17
2022-12-14T22:01:54.384Z,53.97
2022-12-14T22:11:55.726Z,47.45
2022-12-14T22:21:57.158Z,51.33
2022-12-14T22:31:58.585Z,46.30
2022-12-14T22:41:59.853Z,45.45
2022-12-14T22:52:01.155Z,50.35
2022-12-14T23:02:02.695Z,46.72
2022-12-14T23:12:22.548Z,48.00
2022-12-14T23:22:42.223Z,47.03
2022-12-14T23:33:02.194Z,47.42
2022-12-14T23:43:21.927Z,46.53
2022-12-14T23:53:41.715Z,46.67
